sensor_id;sensor_type;location;lat;lon;timestamp;temperature;humidity
46085;DHT22;31823;47.032;8.310;2023-07-13T00:01:48;17.30;99.90
46085;DHT22;31823;47.032;8.310;2023-07-13T00:04:16;17.40;99.90
46085;DHT22;31823;47.032;8.310;2023-07-13T00:06:43;17.30;99.90
46085;DHT22;31823;47.032;8.310;2023-07-13T00:09:16;17.30;99.90
46085;DHT22;31823;47.032;8.310;2023-07-13T00:11:42;17.40;99.90
46085;DHT22;31823;47.032;8.310;2023-07-13T00:14:09;17.50;99.90
46085;DHT22;31823;47.032;8.310;2023-07-13T00:16:36;17.60;99.90
46085;DHT22;31823;47.032;8.310;2023-07-13T00:19:02;17.60;99.90
46085;DHT22;31823;47.032;8.310;2023-07-13T00:21:28;17.70;99.90
46085;DHT22;31823;47.032;8.310;2023-07-13T00:23:54;17.60;99.90
46085;DHT22;31823;47.032;8.310;2023-07-13T00:26:19;17.50;99.90
46085;DHT22;31823;47.032;8.310;2023-07-13T00:28:45;17.50;99.90
46085;DHT22;31823;47.032;8.310;2023-07-13T00:31:12;17.60;99.90
46085;DHT22;31823;47.032;8.310;2023-07-13T00:33:40;17.60;99.90
46085;DHT22;31823;47.032;8.310;2023-07-13T00:36:05;17.50;99.90
46085;DHT22;31823;47.032;8.310;2023-07-13T00:38:31;17.60;99.90
46085;DHT22;31823;47.032;8.310;2023-07-13T00:40:57;17.60;99.90
46085;DHT22;31823;47.032;8.310;2023-07-13T00:43:25;17.40;99.90
46085;DHT22;31823;47.032;8.310;2023-07-13T00:48:23;17.50;99.90
46085;DHT22;31823;47.032;8.310;2023-07-13T00:50:52;17.50;99.90
46085;DHT22;31823;47.032;8.310;2023-07-13T00:53:20;17.60;99.90
46085;DHT22;31823;47.032;8.310;2023-07-13T00:55:47;17.60;99.90
46085;DHT22;31823;47.032;8.310;2023-07-13T00:58:13;17.60;99.90
46085;DHT22;31823;47.032;8.310;2023-07-13T01:00:40;17.60;99.90
46085;DHT22;31823;47.032;8.310;2023-07-13T01:03:05;17.60;99.90
46085;DHT22;31823;47.032;8.310;2023-07-13T01:05:33;17.40;99.90
46085;DHT22;31823;47.032;8.310;2023-07-13T01:08:00;17.30;99.90
46085;DHT22;31823;47.032;8.310;2023-07-13T01:10:26;17.30;99.90
46085;DHT22;31823;47.032;8.310;2023-07-13T01:12:51;17.30;99.90
46085;DHT22;31823;47.032;8.310;2023-07-13T01:15:44;17.20;99.90
46085;DHT22;31823;47.032;8.310;2023-07-13T01:18:13;17.30;99.90
46085;DHT22;31823;47.032;8.310;2023-07-13T01:20:40;17.40;99.90
46085;DHT22;31823;47.032;8.310;2023-07-13T01:23:09;17.40;99.90
46085;DHT22;31823;47.032;8.310;2023-07-13T01:25:35;17.40;99.90
46085;DHT22;31823;47.032;8.310;2023-07-13T01:28:02;17.30;99.90
46085;DHT22;31823;47.032;8.310;2023-07-13T01:30:28;17.30;99.90
46085;DHT22;31823;47.032;8.310;2023-07-13T01:32:54;17.10;99.90
46085;DHT22;31823;47.032;8.310;2023-07-13T01:35:19;17.20;99.90
46085;DHT22;31823;47.032;8.310;2023-07-13T01:37:45;17.40;99.90
46085;DHT22;31823;47.032;8.310;2023-07-13T01:40:12;17.20;99.90
46085;DHT22;31823;47.032;8.310;2023-07-13T01:42:37;17.30;99.90
46085;DHT22;31823;47.032;8.310;2023-07-13T01:45:03;17.10;99.90
46085;DHT22;31823;47.032;8.310;2023-07-13T01:47:29;17.30;99.90
46085;DHT22;31823;47.032;8.310;2023-07-13T01:49:56;17.30;99.90
46085;DHT22;31823;47.032;8.310;2023-07-13T01:52:22;17.40;99.90
46085;DHT22;31823;47.032;8.310;2023-07-13T01:54:47;17.30;99.90
46085;DHT22;31823;47.032;8.310;2023-07-13T01:57:13;17.30;99.90
46085;DHT22;31823;47.032;8.310;2023-07-13T01:59:38;17.30;99.90
46085;DHT22;31823;47.032;8.310;2023-07-13T02:02:04;17.30;99.90
46085;DHT22;31823;47.032;8.310;2023-07-13T02:04:30;17.30;99.90
46085;DHT22;31823;47.032;8.310;2023-07-13T02:06:55;17.30;99.90
46085;DHT22;31823;47.032;8.310;2023-07-13T02:09:21;17.10;99.90
46085;DHT22;31823;47.032;8.310;2023-07-13T02:11:47;17.20;99.90
46085;DHT22;31823;47.032;8.310;2023-07-13T02:14:13;17.30;99.90
46085;DHT22;31823;47.032;8.310;2023-07-13T02:16:40;17.10;99.90
46085;DHT22;31823;47.032;8.310;2023-07-13T02:19:07;17.20;99.90
46085;DHT22;31823;47.032;8.310;2023-07-13T02:21:32;17.10;99.90
46085;DHT22;31823;47.032;8.310;2023-07-13T02:23:58;17.10;99.90
46085;DHT22;31823;47.032;8.310;2023-07-13T02:26:25;17.20;99.90
46085;DHT22;31823;47.032;8.310;2023-07-13T02:28:51;17.20;99.90
46085;DHT22;31823;47.032;8.310;2023-07-13T02:31:16;17.10;99.90
46085;DHT22;31823;47.032;8.310;2023-07-13T02:33:42;17.10;99.90
46085;DHT22;31823;47.032;8.310;2023-07-13T02:36:09;17.00;99.90
46085;DHT22;31823;47.032;8.310;2023-07-13T02:38:35;17.20;99.90
46085;DHT22;31823;47.032;8.310;2023-07-13T02:41:02;17.20;99.90
46085;DHT22;31823;47.032;8.310;2023-07-13T02:43:28;17.10;99.90
46085;DHT22;31823;47.032;8.310;2023-07-13T02:45:53;17.20;99.90
46085;DHT22;31823;47.032;8.310;2023-07-13T02:48:19;17.20;99.90
46085;DHT22;31823;47.032;8.310;2023-07-13T02:50:45;17.10;99.90
46085;DHT22;31823;47.032;8.310;2023-07-13T02:53:11;16.90;99.90
46085;DHT22;31823;47.032;8.310;2023-07-13T02:55:36;16.90;99.90
46085;DHT22;31823;47.032;8.310;2023-07-13T02:58:02;17.00;99.90
46085;DHT22;31823;47.032;8.310;2023-07-13T03:00:28;16.80;99.90
46085;DHT22;31823;47.032;8.310;2023-07-13T03:02:54;16.90;99.90
46085;DHT22;31823;47.032;8.310;2023-07-13T03:05:23;17.00;99.90
46085;DHT22;31823;47.032;8.310;2023-07-13T03:07:48;17.00;99.90
46085;DHT22;31823;47.032;8.310;2023-07-13T03:10:14;17.00;99.90
46085;DHT22;31823;47.032;8.310;2023-07-13T03:12:40;16.90;99.90
46085;DHT22;31823;47.032;8.310;2023-07-13T03:15:05;17.00;99.90
46085;DHT22;31823;47.032;8.310;2023-07-13T03:17:31;16.90;99.90
46085;DHT22;31823;47.032;8.310;2023-07-13T03:19:57;17.00;99.90
46085;DHT22;31823;47.032;8.310;2023-07-13T03:22:22;17.00;99.90
46085;DHT22;31823;47.032;8.310;2023-07-13T03:24:48;16.90;99.90
46085;DHT22;31823;47.032;8.310;2023-07-13T03:27:17;16.80;99.90
46085;DHT22;31823;47.032;8.310;2023-07-13T03:29:43;16.80;99.90
46085;DHT22;31823;47.032;8.310;2023-07-13T03:32:09;16.70;99.90
46085;DHT22;31823;47.032;8.310;2023-07-13T03:34:34;16.80;99.90
46085;DHT22;31823;47.032;8.310;2023-07-13T03:37:00;16.80;99.90
46085;DHT22;31823;47.032;8.310;2023-07-13T03:39:26;16.80;99.90
46085;DHT22;31823;47.032;8.310;2023-07-13T03:41:52;16.80;99.90
46085;DHT22;31823;47.032;8.310;2023-07-13T03:44:18;16.80;99.90
46085;DHT22;31823;47.032;8.310;2023-07-13T03:46:44;16.80;99.90
46085;DHT22;31823;47.032;8.310;2023-07-13T03:49:10;16.70;99.90
46085;DHT22;31823;47.032;8.310;2023-07-13T03:51:36;16.70;99.90
46085;DHT22;31823;47.032;8.310;2023-07-13T03:54:02;16.70;99.90
46085;DHT22;31823;47.032;8.310;2023-07-13T03:56:28;16.80;99.90
46085;DHT22;31823;47.032;8.310;2023-07-13T03:58:55;16.60;99.90
46085;DHT22;31823;47.032;8.310;2023-07-13T04:01:23;16.60;99.90
46085;DHT22;31823;47.032;8.310;2023-07-13T04:03:50;16.50;99.90
46085;DHT22;31823;47.032;8.310;2023-07-13T04:06:36;16.60;99.90
46085;DHT22;31823;47.032;8.310;2023-07-13T04:09:03;16.70;99.90
46085;DHT22;31823;47.032;8.310;2023-07-13T04:11:31;16.80;99.90
46085;DHT22;31823;47.032;8.310;2023-07-13T04:13:57;16.70;99.90
46085;DHT22;31823;47.032;8.310;2023-07-13T04:16:23;16.60;99.90
46085;DHT22;31823;47.032;8.310;2023-07-13T04:18:50;16.70;99.90
46085;DHT22;31823;47.032;8.310;2023-07-13T04:21:16;16.80;99.90
46085;DHT22;31823;47.032;8.310;2023-07-13T04:23:42;16.70;99.90
46085;DHT22;31823;47.032;8.310;2023-07-13T04:26:09;16.80;99.90
46085;DHT22;31823;47.032;8.310;2023-07-13T04:28:34;16.90;99.90
46085;DHT22;31823;47.032;8.310;2023-07-13T04:31:01;16.90;99.90
46085;DHT22;31823;47.032;8.310;2023-07-13T04:33:27;16.90;99.90
46085;DHT22;31823;47.032;8.310;2023-07-13T04:35:54;16.90;99.90
46085;DHT22;31823;47.032;8.310;2023-07-13T04:38:23;16.80;99.90
46085;DHT22;31823;47.032;8.310;2023-07-13T04:40:50;16.90;99.90
46085;DHT22;31823;47.032;8.310;2023-07-13T04:43:16;16.90;99.90
46085;DHT22;31823;47.032;8.310;2023-07-13T04:45:41;17.00;99.90
46085;DHT22;31823;47.032;8.310;2023-07-13T04:48:07;16.90;99.90
46085;DHT22;31823;47.032;8.310;2023-07-13T04:50:33;16.90;99.90
46085;DHT22;31823;47.032;8.310;2023-07-13T04:53:00;16.80;99.90
46085;DHT22;31823;47.032;8.310;2023-07-13T04:55:26;16.90;99.90
46085;DHT22;31823;47.032;8.310;2023-07-13T04:57:55;16.80;99.90
46085;DHT22;31823;47.032;8.310;2023-07-13T05:00:20;17.00;99.90
46085;DHT22;31823;47.032;8.310;2023-07-13T05:02:46;16.70;99.90
46085;DHT22;31823;47.032;8.310;2023-07-13T05:05:12;16.80;99.90
46085;DHT22;31823;47.032;8.310;2023-07-13T05:07:37;16.90;99.90
46085;DHT22;31823;47.032;8.310;2023-07-13T05:10:03;16.80;99.90
46085;DHT22;31823;47.032;8.310;2023-07-13T05:12:30;16.80;99.90
46085;DHT22;31823;47.032;8.310;2023-07-13T05:14:55;16.80;99.90
46085;DHT22;31823;47.032;8.310;2023-07-13T05:17:21;17.00;99.90
46085;DHT22;31823;47.032;8.310;2023-07-13T05:19:47;17.10;99.90
46085;DHT22;31823;47.032;8.310;2023-07-13T05:22:12;17.00;99.90
46085;DHT22;31823;47.032;8.310;2023-07-13T05:24:38;16.90;99.90
46085;DHT22;31823;47.032;8.310;2023-07-13T05:27:04;16.90;99.90
46085;DHT22;31823;47.032;8.310;2023-07-13T05:29:29;17.00;99.90
46085;DHT22;31823;47.032;8.310;2023-07-13T05:31:55;16.80;99.90
46085;DHT22;31823;47.032;8.310;2023-07-13T05:34:20;16.80;99.90
46085;DHT22;31823;47.032;8.310;2023-07-13T05:36:46;16.90;99.90
46085;DHT22;31823;47.032;8.310;2023-07-13T05:39:11;16.70;99.90
46085;DHT22;31823;47.032;8.310;2023-07-13T05:41:37;16.90;99.90
46085;DHT22;31823;47.032;8.310;2023-07-13T05:44:03;17.00;99.90
46085;DHT22;31823;47.032;8.310;2023-07-13T05:46:29;16.90;99.90
46085;DHT22;31823;47.032;8.310;2023-07-13T05:48:54;16.90;99.90
46085;DHT22;31823;47.032;8.310;2023-07-13T05:51:20;16.90;99.90
46085;DHT22;31823;47.032;8.310;2023-07-13T05:53:45;16.90;99.90
46085;DHT22;31823;47.032;8.310;2023-07-13T05:56:11;16.90;99.90
46085;DHT22;31823;47.032;8.310;2023-07-13T05:58:37;16.90;99.90
46085;DHT22;31823;47.032;8.310;2023-07-13T06:01:10;16.90;99.90
46085;DHT22;31823;47.032;8.310;2023-07-13T06:03:36;16.80;99.90
46085;DHT22;31823;47.032;8.310;2023-07-13T06:06:05;16.80;99.90
46085;DHT22;31823;47.032;8.310;2023-07-13T06:08:32;17.00;99.90
46085;DHT22;31823;47.032;8.310;2023-07-13T06:11:15;17.00;99.90
46085;DHT22;31823;47.032;8.310;2023-07-13T06:13:41;17.10;99.90
46085;DHT22;31823;47.032;8.310;2023-07-13T06:16:06;17.10;99.90
46085;DHT22;31823;47.032;8.310;2023-07-13T06:18:36;17.20;99.90
46085;DHT22;31823;47.032;8.310;2023-07-13T06:21:11;17.10;99.90
46085;DHT22;31823;47.032;8.310;2023-07-13T06:23:37;17.20;99.90
46085;DHT22;31823;47.032;8.310;2023-07-13T06:26:04;17.20;99.90
46085;DHT22;31823;47.032;8.310;2023-07-13T06:28:35;17.20;99.90
46085;DHT22;31823;47.032;8.310;2023-07-13T06:31:01;17.20;99.90
46085;DHT22;31823;47.032;8.310;2023-07-13T06:33:27;17.30;99.90
46085;DHT22;31823;47.032;8.310;2023-07-13T06:35:52;17.20;99.90
46085;DHT22;31823;47.032;8.310;2023-07-13T06:38:20;17.10;99.90
46085;DHT22;31823;47.032;8.310;2023-07-13T06:40:45;17.10;99.90
46085;DHT22;31823;47.032;8.310;2023-07-13T06:43:11;17.10;99.90
46085;DHT22;31823;47.032;8.310;2023-07-13T06:45:45;17.00;99.90
46085;DHT22;31823;47.032;8.310;2023-07-13T06:48:13;17.10;99.90
46085;DHT22;31823;47.032;8.310;2023-07-13T06:50:38;17.00;99.90
46085;DHT22;31823;47.032;8.310;2023-07-13T06:53:04;17.10;99.90
46085;DHT22;31823;47.032;8.310;2023-07-13T06:55:29;17.30;99.90
46085;DHT22;31823;47.032;8.310;2023-07-13T06:57:55;17.10;99.90
46085;DHT22;31823;47.032;8.310;2023-07-13T07:00:20;17.20;99.90
46085;DHT22;31823;47.032;8.310;2023-07-13T07:02:46;17.20;99.90
46085;DHT22;31823;47.032;8.310;2023-07-13T07:05:12;17.20;99.90
46085;DHT22;31823;47.032;8.310;2023-07-13T07:07:37;17.60;99.90
46085;DHT22;31823;47.032;8.310;2023-07-13T07:10:03;17.80;99.90
46085;DHT22;31823;47.032;8.310;2023-07-13T07:12:29;17.80;99.90
46085;DHT22;31823;47.032;8.310;2023-07-13T07:14:54;17.70;99.90
46085;DHT22;31823;47.032;8.310;2023-07-13T07:17:20;17.90;99.90
46085;DHT22;31823;47.032;8.310;2023-07-13T07:19:45;18.10;99.90
46085;DHT22;31823;47.032;8.310;2023-07-13T07:22:11;18.60;99.90
46085;DHT22;31823;47.032;8.310;2023-07-13T07:24:37;18.80;99.90
46085;DHT22;31823;47.032;8.310;2023-07-13T07:27:03;18.80;99.90
46085;DHT22;31823;47.032;8.310;2023-07-13T07:29:28;19.30;99.90
46085;DHT22;31823;47.032;8.310;2023-07-13T07:31:54;19.40;99.90
46085;DHT22;31823;47.032;8.310;2023-07-13T07:34:19;18.80;99.90
46085;DHT22;31823;47.032;8.310;2023-07-13T07:36:45;18.90;99.90
46085;DHT22;31823;47.032;8.310;2023-07-13T07:39:11;18.70;99.90
46085;DHT22;31823;47.032;8.310;2023-07-13T07:41:37;18.30;99.90
46085;DHT22;31823;47.032;8.310;2023-07-13T07:44:02;18.50;99.90
46085;DHT22;31823;47.032;8.310;2023-07-13T07:46:28;18.60;99.90
46085;DHT22;31823;47.032;8.310;2023-07-13T07:48:55;18.60;99.90
46085;DHT22;31823;47.032;8.310;2023-07-13T07:51:21;18.30;99.90
46085;DHT22;31823;47.032;8.310;2023-07-13T07:53:48;18.20;99.90
46085;DHT22;31823;47.032;8.310;2023-07-13T07:56:14;18.10;99.90
46085;DHT22;31823;47.032;8.310;2023-07-13T07:58:41;18.00;99.90
46085;DHT22;31823;47.032;8.310;2023-07-13T08:01:07;18.10;99.90
46085;DHT22;31823;47.032;8.310;2023-07-13T08:03:33;18.20;99.90
46085;DHT22;31823;47.032;8.310;2023-07-13T08:05:59;18.40;99.90
46085;DHT22;31823;47.032;8.310;2023-07-13T08:08:25;18.10;99.90
46085;DHT22;31823;47.032;8.310;2023-07-13T08:10:51;18.20;99.90
46085;DHT22;31823;47.032;8.310;2023-07-13T08:13:17;18.00;99.90
46085;DHT22;31823;47.032;8.310;2023-07-13T08:15:42;18.10;99.90
46085;DHT22;31823;47.032;8.310;2023-07-13T08:18:08;18.20;99.90
46085;DHT22;31823;47.032;8.310;2023-07-13T08:20:37;18.00;99.90
46085;DHT22;31823;47.032;8.310;2023-07-13T08:23:03;17.90;99.90
46085;DHT22;31823;47.032;8.310;2023-07-13T08:25:28;18.00;99.90
46085;DHT22;31823;47.032;8.310;2023-07-13T08:27:54;18.10;99.90
46085;DHT22;31823;47.032;8.310;2023-07-13T08:30:20;18.00;99.90
46085;DHT22;31823;47.032;8.310;2023-07-13T08:32:45;18.10;99.90
46085;DHT22;31823;47.032;8.310;2023-07-13T08:35:11;18.10;99.90
46085;DHT22;31823;47.032;8.310;2023-07-13T08:37:37;18.20;99.90
46085;DHT22;31823;47.032;8.310;2023-07-13T08:40:02;18.20;99.90
46085;DHT22;31823;47.032;8.310;2023-07-13T08:45:29;18.00;99.90
46085;DHT22;31823;47.032;8.310;2023-07-13T08:47:59;17.90;99.90
46085;DHT22;31823;47.032;8.310;2023-07-13T08:50:35;18.00;99.90
46085;DHT22;31823;47.032;8.310;2023-07-13T08:53:04;18.00;99.90
46085;DHT22;31823;47.032;8.310;2023-07-13T08:55:33;17.90;99.90
46085;DHT22;31823;47.032;8.310;2023-07-13T08:58:09;17.80;99.90
46085;DHT22;31823;47.032;8.310;2023-07-13T09:04:05;17.90;99.90
46085;DHT22;31823;47.032;8.310;2023-07-13T09:06:55;18.20;99.90
46085;DHT22;31823;47.032;8.310;2023-07-13T09:14:53;18.30;99.90
46085;DHT22;31823;47.032;8.310;2023-07-13T09:17:41;18.40;99.90
46085;DHT22;31823;47.032;8.310;2023-07-13T09:20:35;18.20;99.90
46085;DHT22;31823;47.032;8.310;2023-07-13T09:23:07;18.40;99.90
46085;DHT22;31823;47.032;8.310;2023-07-13T09:25:36;18.40;99.90
46085;DHT22;31823;47.032;8.310;2023-07-13T09:28:11;18.60;99.90
46085;DHT22;31823;47.032;8.310;2023-07-13T09:33:21;18.00;99.90
46085;DHT22;31823;47.032;8.310;2023-07-13T09:35:48;18.30;99.90
46085;DHT22;31823;47.032;8.310;2023-07-13T09:38:18;18.40;99.90
46085;DHT22;31823;47.032;8.310;2023-07-13T09:43:21;18.50;99.90
46085;DHT22;31823;47.032;8.310;2023-07-13T09:45:47;18.10;99.90
46085;DHT22;31823;47.032;8.310;2023-07-13T09:48:15;18.10;99.90
46085;DHT22;31823;47.032;8.310;2023-07-13T09:50:41;18.00;99.90
46085;DHT22;31823;47.032;8.310;2023-07-13T09:53:13;18.10;99.90
46085;DHT22;31823;47.032;8.310;2023-07-13T09:55:40;17.90;99.90
46085;DHT22;31823;47.032;8.310;2023-07-13T09:58:13;18.10;99.90
46085;DHT22;31823;47.032;8.310;2023-07-13T10:00:40;18.30;99.90
46085;DHT22;31823;47.032;8.310;2023-07-13T10:03:20;18.30;99.90
46085;DHT22;31823;47.032;8.310;2023-07-13T10:05:49;18.50;99.90
46085;DHT22;31823;47.032;8.310;2023-07-13T10:08:29;18.70;99.90
46085;DHT22;31823;47.032;8.310;2023-07-13T10:11:01;19.10;99.90
46085;DHT22;31823;47.032;8.310;2023-07-13T10:13:35;19.50;99.90
46085;DHT22;31823;47.032;8.310;2023-07-13T10:16:03;19.70;99.90
46085;DHT22;31823;47.032;8.310;2023-07-13T10:21:18;19.50;99.90
46085;DHT22;31823;47.032;8.310;2023-07-13T10:23:47;19.60;99.90
46085;DHT22;31823;47.032;8.310;2023-07-13T10:26:21;19.70;99.90
46085;DHT22;31823;47.032;8.310;2023-07-13T10:28:51;20.30;99.90
46085;DHT22;31823;47.032;8.310;2023-07-13T10:31:18;20.20;99.90
46085;DHT22;31823;47.032;8.310;2023-07-13T10:33:45;20.20;99.90
46085;DHT22;31823;47.032;8.310;2023-07-13T10:39:03;19.60;99.90
46085;DHT22;31823;47.032;8.310;2023-07-13T10:41:32;19.60;99.90
46085;DHT22;31823;47.032;8.310;2023-07-13T10:43:59;19.90;99.90
46085;DHT22;31823;47.032;8.310;2023-07-13T10:46:27;20.20;99.90
46085;DHT22;31823;47.032;8.310;2023-07-13T10:49:01;20.20;99.90
46085;DHT22;31823;47.032;8.310;2023-07-13T10:51:28;20.00;99.90
46085;DHT22;31823;47.032;8.310;2023-07-13T10:54:18;19.70;99.90
46085;DHT22;31823;47.032;8.310;2023-07-13T10:56:45;19.90;99.90
46085;DHT22;31823;47.032;8.310;2023-07-13T10:59:23;20.00;99.90
46085;DHT22;31823;47.032;8.310;2023-07-13T11:01:56;20.10;99.90
46085;DHT22;31823;47.032;8.310;2023-07-13T11:04:22;20.30;99.90
46085;DHT22;31823;47.032;8.310;2023-07-13T11:06:53;20.60;99.90
46085;DHT22;31823;47.032;8.310;2023-07-13T11:09:37;20.80;99.90
46085;DHT22;31823;47.032;8.310;2023-07-13T11:12:09;20.70;99.90
46085;DHT22;31823;47.032;8.310;2023-07-13T11:15:00;20.40;99.90
46085;DHT22;31823;47.032;8.310;2023-07-13T11:17:54;20.10;99.90
46085;DHT22;31823;47.032;8.310;2023-07-13T11:20:36;20.00;99.90
46085;DHT22;31823;47.032;8.310;2023-07-13T11:25:39;19.90;99.90
46085;DHT22;31823;47.032;8.310;2023-07-13T11:30:42;20.00;99.90
46085;DHT22;31823;47.032;8.310;2023-07-13T11:36:15;20.40;99.90
46085;DHT22;31823;47.032;8.310;2023-07-13T11:38:47;20.30;99.90
46085;DHT22;31823;47.032;8.310;2023-07-13T11:41:35;20.30;99.90
46085;DHT22;31823;47.032;8.310;2023-07-13T11:44:12;20.70;99.90
46085;DHT22;31823;47.032;8.310;2023-07-13T11:46:38;21.10;99.90
46085;DHT22;31823;47.032;8.310;2023-07-13T11:49:06;21.60;99.90
46085;DHT22;31823;47.032;8.310;2023-07-13T11:51:34;22.20;99.90
46085;DHT22;31823;47.032;8.310;2023-07-13T11:54:10;22.90;99.90
46085;DHT22;31823;47.032;8.310;2023-07-13T11:56:38;22.60;99.90
46085;DHT22;31823;47.032;8.310;2023-07-13T11:59:07;22.10;99.90
46085;DHT22;31823;47.032;8.310;2023-07-13T12:01:33;22.50;99.90
46085;DHT22;31823;47.032;8.310;2023-07-13T12:04:04;22.80;99.90
46085;DHT22;31823;47.032;8.310;2023-07-13T12:06:33;22.60;99.90
46085;DHT22;31823;47.032;8.310;2023-07-13T12:09:03;22.20;99.90
46085;DHT22;31823;47.032;8.310;2023-07-13T12:11:41;21.70;99.90
46085;DHT22;31823;47.032;8.310;2023-07-13T12:14:14;20.70;99.90
46085;DHT22;31823;47.032;8.310;2023-07-13T12:16:40;20.90;99.90
46085;DHT22;31823;47.032;8.310;2023-07-13T12:19:22;21.20;99.90
46085;DHT22;31823;47.032;8.310;2023-07-13T12:21:48;20.90;99.90
46085;DHT22;31823;47.032;8.310;2023-07-13T12:24:17;21.10;99.90
46085;DHT22;31823;47.032;8.310;2023-07-13T12:26:43;21.30;99.90
46085;DHT22;31823;47.032;8.310;2023-07-13T12:29:16;21.00;99.90
46085;DHT22;31823;47.032;8.310;2023-07-13T12:31:45;20.70;99.90
46085;DHT22;31823;47.032;8.310;2023-07-13T12:34:14;20.70;99.90
46085;DHT22;31823;47.032;8.310;2023-07-13T12:36:49;20.60;99.90
46085;DHT22;31823;47.032;8.310;2023-07-13T12:41:41;21.00;99.90
46085;DHT22;31823;47.032;8.310;2023-07-13T12:44:15;21.60;99.90
46085;DHT22;31823;47.032;8.310;2023-07-13T12:46:52;22.20;99.90
46085;DHT22;31823;47.032;8.310;2023-07-13T12:49:23;22.00;99.90
46085;DHT22;31823;47.032;8.310;2023-07-13T12:51:50;22.00;99.90
46085;DHT22;31823;47.032;8.310;2023-07-13T12:54:18;21.90;99.90
46085;DHT22;31823;47.032;8.310;2023-07-13T12:56:45;21.60;99.90
46085;DHT22;31823;47.032;8.310;2023-07-13T12:59:20;21.80;99.90
46085;DHT22;31823;47.032;8.310;2023-07-13T13:01:47;22.80;99.90
46085;DHT22;31823;47.032;8.310;2023-07-13T13:04:14;22.80;99.90
46085;DHT22;31823;47.032;8.310;2023-07-13T13:06:40;22.80;99.90
46085;DHT22;31823;47.032;8.310;2023-07-13T13:09:15;22.60;99.90
46085;DHT22;31823;47.032;8.310;2023-07-13T13:11:42;23.30;99.90
46085;DHT22;31823;47.032;8.310;2023-07-13T13:14:08;22.80;99.90
46085;DHT22;31823;47.032;8.310;2023-07-13T13:16:37;22.70;99.90
46085;DHT22;31823;47.032;8.310;2023-07-13T13:19:18;22.10;99.90
46085;DHT22;31823;47.032;8.310;2023-07-13T13:21:45;22.90;99.90
46085;DHT22;31823;47.032;8.310;2023-07-13T13:24:17;23.70;99.90
46085;DHT22;31823;47.032;8.310;2023-07-13T13:26:44;23.70;99.90
46085;DHT22;31823;47.032;8.310;2023-07-13T13:29:16;24.10;99.90
46085;DHT22;31823;47.032;8.310;2023-07-13T13:31:42;24.40;99.90
46085;DHT22;31823;47.032;8.310;2023-07-13T13:34:10;24.20;99.90
46085;DHT22;31823;47.032;8.310;2023-07-13T13:36:36;24.30;99.90
46085;DHT22;31823;47.032;8.310;2023-07-13T13:39:02;24.10;99.90
46085;DHT22;31823;47.032;8.310;2023-07-13T13:41:27;24.40;99.90
46085;DHT22;31823;47.032;8.310;2023-07-13T13:43:53;24.40;99.90
46085;DHT22;31823;47.032;8.310;2023-07-13T13:46:22;24.30;99.90
46085;DHT22;31823;47.032;8.310;2023-07-13T13:48:50;23.70;99.90
46085;DHT22;31823;47.032;8.310;2023-07-13T13:51:19;23.50;99.90
46085;DHT22;31823;47.032;8.310;2023-07-13T13:53:45;23.10;99.90
46085;DHT22;31823;47.032;8.310;2023-07-13T13:56:12;22.30;99.90
46085;DHT22;31823;47.032;8.310;2023-07-13T13:58:38;21.80;99.90
46085;DHT22;31823;47.032;8.310;2023-07-13T14:01:04;22.50;99.90
46085;DHT22;31823;47.032;8.310;2023-07-13T14:03:33;22.70;99.90
46085;DHT22;31823;47.032;8.310;2023-07-13T14:05:59;23.20;99.90
46085;DHT22;31823;47.032;8.310;2023-07-13T14:08:24;23.90;99.90
46085;DHT22;31823;47.032;8.310;2023-07-13T14:10:54;23.90;99.90
46085;DHT22;31823;47.032;8.310;2023-07-13T14:13:21;24.00;99.90
46085;DHT22;31823;47.032;8.310;2023-07-13T14:16:11;24.20;99.90
46085;DHT22;31823;47.032;8.310;2023-07-13T14:18:38;24.40;99.90
46085;DHT22;31823;47.032;8.310;2023-07-13T14:21:24;24.30;99.90
46085;DHT22;31823;47.032;8.310;2023-07-13T14:23:49;23.80;99.90
46085;DHT22;31823;47.032;8.310;2023-07-13T14:26:21;23.60;99.90
46085;DHT22;31823;47.032;8.310;2023-07-13T14:28:52;23.40;99.90
46085;DHT22;31823;47.032;8.310;2023-07-13T14:31:18;23.10;99.90
46085;DHT22;31823;47.032;8.310;2023-07-13T14:33:44;23.10;99.90
46085;DHT22;31823;47.032;8.310;2023-07-13T14:38:51;24.30;99.90
46085;DHT22;31823;47.032;8.310;2023-07-13T14:41:16;24.20;99.90
46085;DHT22;31823;47.032;8.310;2023-07-13T14:43:42;23.40;99.90
46085;DHT22;31823;47.032;8.310;2023-07-13T14:46:20;24.10;99.90
46085;DHT22;31823;47.032;8.310;2023-07-13T14:48:48;24.30;99.90
46085;DHT22;31823;47.032;8.310;2023-07-13T14:51:14;24.50;99.90
46085;DHT22;31823;47.032;8.310;2023-07-13T14:53:39;24.40;99.90
46085;DHT22;31823;47.032;8.310;2023-07-13T14:56:11;23.50;99.90
46085;DHT22;31823;47.032;8.310;2023-07-13T14:58:37;23.40;99.90
46085;DHT22;31823;47.032;8.310;2023-07-13T15:01:14;23.40;99.90
46085;DHT22;31823;47.032;8.310;2023-07-13T15:03:45;23.20;99.90
46085;DHT22;31823;47.032;8.310;2023-07-13T15:06:12;23.20;99.90
46085;DHT22;31823;47.032;8.310;2023-07-13T15:08:38;23.60;99.90
46085;DHT22;31823;47.032;8.310;2023-07-13T15:11:09;23.50;99.90
46085;DHT22;31823;47.032;8.310;2023-07-13T15:13:37;22.90;99.90
46085;DHT22;31823;47.032;8.310;2023-07-13T15:16:05;22.40;99.90
46085;DHT22;31823;47.032;8.310;2023-07-13T15:18:35;22.10;99.90
46085;DHT22;31823;47.032;8.310;2023-07-13T15:21:02;21.90;99.90
46085;DHT22;31823;47.032;8.310;2023-07-13T15:23:29;22.00;99.90
46085;DHT22;31823;47.032;8.310;2023-07-13T15:25:55;21.80;99.90
46085;DHT22;31823;47.032;8.310;2023-07-13T15:28:20;21.50;99.90
46085;DHT22;31823;47.032;8.310;2023-07-13T15:30:48;21.30;99.90
46085;DHT22;31823;47.032;8.310;2023-07-13T15:33:25;21.80;99.90
46085;DHT22;31823;47.032;8.310;2023-07-13T15:35:51;22.60;99.90
46085;DHT22;31823;47.032;8.310;2023-07-13T15:38:21;23.10;99.90
46085;DHT22;31823;47.032;8.310;2023-07-13T15:40:48;22.70;99.90
46085;DHT22;31823;47.032;8.310;2023-07-13T15:43:15;22.30;99.90
46085;DHT22;31823;47.032;8.310;2023-07-13T15:45:42;21.60;99.90
46085;DHT22;31823;47.032;8.310;2023-07-13T15:48:17;21.50;99.90
46085;DHT22;31823;47.032;8.310;2023-07-13T15:51:04;21.40;99.90
46085;DHT22;31823;47.032;8.310;2023-07-13T15:53:32;21.30;99.90
46085;DHT22;31823;47.032;8.310;2023-07-13T15:55:59;21.40;99.90
46085;DHT22;31823;47.032;8.310;2023-07-13T15:58:25;21.70;99.90
46085;DHT22;31823;47.032;8.310;2023-07-13T16:00:51;22.00;99.90
46085;DHT22;31823;47.032;8.310;2023-07-13T16:03:19;22.40;99.90
46085;DHT22;31823;47.032;8.310;2023-07-13T16:05:45;21.90;99.90
46085;DHT22;31823;47.032;8.310;2023-07-13T16:08:30;22.30;99.90
46085;DHT22;31823;47.032;8.310;2023-07-13T16:10:56;22.80;99.90
46085;DHT22;31823;47.032;8.310;2023-07-13T16:13:22;22.50;99.90
46085;DHT22;31823;47.032;8.310;2023-07-13T16:15:50;22.70;99.90